Chicago O'Hare International, Illinois
Current Conditions -  °F | °C
As of 3:05 PM on Saturday 22 Nov 2014 (Local Time) from KORD Reporting Station
Overcast Overcast  
Wind Chill: 44°   Ceiling: 2000
Heat Index: 49°   Visibility: 10mi
Dew Point: 43°   Wind: 12mph
Humidity: 80%   Direction: 210°SSW
Pressure: 29.86"   Gusts: NA
Location:  41.98°N, 87.9°W
Report Text: KORD 222105Z 21010KT 10SM BKN020 BKN027 OVC047 09/06 A2986 RMK AO2 T00940061
Loading
Personal Weather Stations






























Interactive Weather Map New forecast layout! Learn more

10-Day Weather Forecast

Advertisements
Track Severe Weather on mobile